Time;durP1;ratioP1;P1;durP2;ratioP2;P2;SDS_P1;SDS_P2;PMS_P1;PMS_P2;Temp;Humidity;BMP_temperature;BMP_pressure;BME280_temperature;BME280_humidity;BME280_pressure;Samples;Min_cycle;Max_cycle;Signal;HPM_P1;HPM_P2
2022/12/25 00:01:21;;;;;;;35.90;19.50;;;;;;;4.15;87.73;98704.30;101851;1305;75198;-22
2022/12/25 00:03:48;;;;;;;43.10;23.30;;;;;;;3.76;89.06;98707.24;101759;1306;62832;-23
2022/12/25 00:06:16;;;;;;;42.80;21.20;;;;;;;3.47;90.44;98707.71;101885;1289;62901;-23
2022/12/25 00:08:43;;;;;;;29.80;16.00;;;;;;;3.25;92.15;98710.55;101855;1305;75513;-22
2022/12/25 00:11:12;;;;;;;35.90;19.00;;;;;;;3.45;92.00;98710.06;101848;1301;74689;-22
2022/12/25 00:13:39;;;;;;;36.20;19.90;;;;;;;3.95;90.41;98708.88;101816;1305;73829;-22
2022/12/25 00:16:17;;;;;;;31.00;18.80;;;;;;;4.00;89.23;98713.91;101786;1305;61557;-22
2022/12/25 00:18:45;;;;;;;32.60;18.70;;;;;;;3.84;89.27;98715.71;101855;1299;61906;-23
2022/12/25 00:21:15;;;;;;;35.90;20.10;;;;;;;3.67;89.85;98717.55;101781;1308;74436;-23
2022/12/25 00:23:42;;;;;;;22.10;11.90;;;;;;;3.51;90.29;98721.05;101850;1308;76743;-22
2022/12/25 00:26:14;;;;;;;32.90;18.10;;;;;;;3.82;90.17;98722.53;101860;1305;73301;-22
2022/12/25 00:28:41;;;;;;;24.60;14.40;;;;;;;4.15;88.07;98727.66;101687;1308;62904;-22
2022/12/25 00:31:10;;;;;;;30.30;17.50;;;;;;;3.98;88.60;98732.10;101864;1303;62879;-23
2022/12/25 00:33:38;;;;;;;31.30;18.60;;;;;;;4.04;88.15;98736.02;101876;1303;73346;-22
2022/12/25 00:36:06;;;;;;;27.70;14.30;;;;;;;3.71;88.78;98744.63;101776;1306;74576;-22
2022/12/25 00:38:34;;;;;;;20.60;12.60;;;;;;;3.45;90.63;98744.94;101609;1308;73897;-23
2022/12/25 00:41:12;;;;;;;27.80;15.70;;;;;;;3.91;89.72;98748.80;101867;1305;63370;-22
2022/12/25 00:43:43;;;;;;;24.60;14.40;;;;;;;4.43;87.81;98748.83;101832;1300;62006;-23
2022/12/25 00:46:11;;;;;;;25.60;14.10;;;;;;;4.62;87.34;98749.88;101805;1298;74244;-22
2022/12/25 00:48:38;;;;;;;26.30;15.20;;;;;;;4.34;86.27;98752.80;101725;1305;75506;-24
2022/12/25 00:51:07;;;;;;;29.10;17.70;;;;;;;4.00;86.98;98750.16;101860;1305;75134;-26
2022/12/25 00:53:34;;;;;;;27.80;16.00;;;;;;;3.69;88.70;98753.50;101770;1294;61101;-25
2022/12/25 00:56:02;;;;;;;29.10;16.40;;;;;;;3.44;89.97;98754.10;101872;1289;62093;-25
2022/12/25 00:58:31;;;;;;;28.70;16.40;;;;;;;3.66;90.12;98752.98;102039;1297;75556;-23
2022/12/25 01:00:58;;;;;;;28.30;16.80;;;;;;;3.84;88.96;98750.79;102010;1296;75743;-26
2022/12/25 01:03:25;;;;;;;27.60;17.10;;;;;;;3.96;88.46;98755.01;102188;1299;73998;-25
2022/12/25 01:05:54;;;;;;;36.90;20.60;;;;;;;3.73;88.94;98760.85;102163;1295;61571;-23
2022/12/25 01:08:21;;;;;;;40.50;23.20;;;;;;;3.46;90.64;98763.59;101941;1285;62940;-24
2022/12/25 01:10:56;;;;;;;24.00;15.10;;;;;;;3.24;91.45;98763.23;101955;1302;75562;-23
2022/12/25 01:13:23;;;;;;;29.50;19.20;;;;;;;3.62;91.31;98764.70;101965;1296;75686;-23
2022/12/25 01:15:53;;;;;;;31.00;17.00;;;;;;;3.93;89.23;98764.85;102179;1301;73979;-23
2022/12/25 01:18:21;;;;;;;29.20;18.10;;;;;;;3.83;89.32;98768.18;102140;1297;61573;-23
2022/12/25 01:20:48;;;;;;;31.30;19.90;;;;;;;3.61;89.72;98773.70;102164;1287;62506;-23
2022/12/25 01:23:15;;;;;;;31.50;19.10;;;;;;;3.48;90.61;98773.93;102188;1302;74546;-23
2022/12/25 01:25:42;;;;;;;30.10;17.10;;;;;;;3.29;91.49;98777.89;102143;1301;76488;-23
2022/12/25 01:28:09;;;;;;;38.70;22.90;;;;;;;3.46;91.47;98775.77;102036;1297;73894;-23
2022/12/25 01:30:36;;;;;;;32.70;19.80;;;;;;;3.73;89.89;98772.66;102196;1302;62170;-23
2022/12/25 01:33:03;;;;;;;41.70;25.30;;;;;;;3.69;89.71;98770.36;102248;1296;61369;-23
2022/12/25 01:35:30;;;;;;;30.00;20.30;;;;;;;3.36;91.00;98774.26;102259;1294;75766;-23
2022/12/25 01:37:57;;;;;;;33.70;20.40;;;;;;;3.23;92.05;98772.92;102219;1301;75661;-23
2022/12/25 01:40:24;;;;;;;22.30;13.60;;;;;;;3.29;92.30;98772.75;102150;1294;74265;-23
2022/12/25 01:42:51;;;;;;;31.10;18.40;;;;;;;3.51;91.87;98771.02;102214;1294;62942;-23
2022/12/25 01:45:27;;;;;;;34.70;23.20;;;;;;;3.78;90.02;98776.86;102231;1294;61966;-23
2022/12/25 01:47:55;;;;;;;32.40;22.30;;;;;;;3.65;89.97;98784.30;102161;1300;75219;-24
2022/12/25 01:50:21;;;;;;;38.70;25.70;;;;;;;3.11;91.85;98790.56;102226;1295;76776;-23
2022/12/25 01:52:48;;;;;;;25.70;16.40;;;;;;;3.08;93.03;98794.82;102120;1305;74317;-23
2022/12/25 01:55:15;;;;;;;19.20;13.30;;;;;;;3.09;93.55;98798.40;102174;1301;61712;-23
2022/12/25 01:57:42;;;;;;;19.80;14.50;;;;;;;3.31;92.64;98793.06;102236;1300;62517;-23
2022/12/25 02:00:10;;;;;;;23.00;15.20;;;;;;;3.26;92.28;98796.23;102211;1298;75532;-23
2022/12/25 02:02:37;;;;;;;20.80;14.40;;;;;;;3.36;92.14;98800.33;102006;1305;75548;-23
2022/12/25 02:05:13;;;;;;;20.70;13.90;;;;;;;3.09;92.70;98799.95;102110;1297;75187;-23
2022/12/25 02:07:40;;;;;;;31.60;19.70;;;;;;;3.18;93.15;98803.90;101929;1303;61796;-24
2022/12/25 02:10:09;;;;;;;29.70;19.70;;;;;;;3.49;91.98;98804.58;102040;1301;62593;-23
2022/12/25 02:12:36;;;;;;;14.20;9.80;;;;;;;3.48;90.94;98805.16;101953;1301;74614;-23
2022/12/25 02:15:11;;;;;;;21.30;14.20;;;;;;;3.35;91.37;98808.64;102156;1301;76710;-24
2022/12/25 02:18:00;;;;;;;24.50;15.50;;;;;;;3.06;92.26;98813.95;101917;1297;75509;-23
2022/12/25 02:21:05;;;;;;;21.40;14.80;;;;;;;3.01;93.63;98815.27;102124;1301;63746;-23
2022/12/25 02:24:03;;;;;;;20.30;14.10;;;;;;;3.45;92.13;98815.81;102098;1294;62562;-23
2022/12/25 02:26:45;;;;;;;9.90;7.20;;;;;;;3.22;91.70;98817.76;102037;1295;76516;-23
2022/12/25 02:29:16;;;;;;;12.90;9.40;;;;;;;3.29;91.75;98816.14;101979;1302;75695;-23
2022/12/25 02:32:14;;;;;;;7.20;5.30;;;;;;;2.93;92.91;98814.48;102067;1294;75197;-23
2022/12/25 02:35:01;;;;;;;7.80;6.10;;;;;;;3.07;93.42;98819.59;101922;1304;61763;-23
2022/12/25 02:37:34;;;;;;;9.40;6.40;;;;;;;3.43;91.81;98822.45;102065;1302;62899;-23
2022/12/25 02:40:13;;;;;;;11.90;8.70;;;;;;;3.16;92.05;98821.15;102050;1302;76268;-23
2022/12/25 03:08:17;;;;;;;24.00;16.80;;;;;;;3.08;92.67;98843.38;101943;1297;74248;-23
2022/12/25 03:13:35;;;;;;;12.20;8.30;;;;;;;3.13;92.56;98852.88;101948;1297;75281;-23
2022/12/25 03:18:48;;;;;;;10.30;8.50;;;;;;;3.20;91.45;98854.56;102129;1295;61759;-23
2022/12/25 03:26:56;;;;;;;26.30;16.40;;;;;;;3.32;91.50;98860.09;102142;1297;75225;-22
2022/12/25 03:33:05;;;;;;;11.00;8.30;;;;;;;2.94;92.07;98863.51;101608;1300;63093;-23
2022/12/25 03:36:04;;;;;;;21.30;14.90;;;;;;;2.74;93.28;98864.88;102198;1300;75380;-23
2022/12/25 03:49:28;;;;;;;10.10;7.70;;;;;;;2.90;92.42;98880.81;101941;1294;61760;-23
2022/12/25 04:38:07;;;;;;;12.10;9.00;;;;;;;2.97;90.51;98916.12;102225;1294;75144;-24
2022/12/25 04:40:34;;;;;;;8.90;6.30;;;;;;;3.33;89.19;98913.06;102182;1293;62644;-22
2022/12/25 04:43:01;;;;;;;10.10;7.00;;;;;;;3.26;88.43;98913.77;102087;1300;61579;-22
2022/12/25 04:45:28;;;;;;;10.90;7.40;;;;;;;2.63;90.18;98914.44;102213;1294;75228;-22
2022/12/25 04:47:58;;;;;;;10.70;6.60;;;;;;;2.51;91.84;98920.38;102098;1301;76503;-22
2022/12/25 04:50:25;;;;;;;14.20;9.20;;;;;;;2.88;91.02;98922.77;101901;1297;75362;-22
2022/12/25 04:52:52;;;;;;;10.20;7.10;;;;;;;3.24;89.32;98928.95;102178;1301;61811;-22
2022/12/25 04:55:19;;;;;;;16.20;8.50;;;;;;;3.25;88.23;98934.44;102085;1301;61358;-21
2022/12/25 04:57:46;;;;;;;18.70;11.20;;;;;;;2.89;88.94;98932.48;101881;1301;74583;-22
2022/12/25 05:00:13;;;;;;;21.60;14.60;;;;;;;2.68;90.65;98938.70;102117;1295;76702;-22
2022/12/25 05:02:40;;;;;;;18.10;12.00;;;;;;;2.60;91.01;98941.14;102059;1297;73981;-22
2022/12/25 05:05:08;;;;;;;17.80;12.40;;;;;;;2.49;92.02;98943.39;102137;1300;63739;-22
2022/12/25 05:07:35;;;;;;;16.80;12.90;;;;;;;2.88;90.46;98948.17;102206;1294;61120;-22
2022/12/25 05:10:02;;;;;;;13.80;10.40;;;;;;;2.96;89.76;98948.97;102217;1294;76325;-22
2022/12/25 05:12:29;;;;;;;12.20;8.70;;;;;;;2.84;89.65;98949.77;102280;1294;76589;-22
2022/12/25 05:14:56;;;;;;;33.00;20.70;;;;;;;2.67;90.29;98948.71;102190;1302;73927;-22
2022/12/25 05:17:23;;;;;;;37.10;20.70;;;;;;;2.45;91.30;98949.09;102166;1301;63549;-22
2022/12/25 05:19:50;;;;;;;26.30;13.00;;;;;;;2.69;90.95;98952.20;101997;1295;61648;-22
2022/12/25 05:22:17;;;;;;;35.10;17.30;;;;;;;3.22;89.37;98952.10;102177;1278;75050;-22
2022/12/25 05:24:43;;;;;;;36.30;20.70;;;;;;;3.09;88.25;98956.17;102233;1294;76931;-22
2022/12/25 05:27:10;;;;;;;26.20;12.70;;;;;;;3.02;88.51;98957.88;102186;1301;73930;-22
2022/12/25 05:29:37;;;;;;;19.60;10.40;;;;;;;2.51;89.95;98960.11;102098;1297;62075;-22
2022/12/25 05:32:04;;;;;;;15.70;8.80;;;;;;;2.36;91.57;98961.73;102017;1297;61531;-22
2022/12/25 05:34:31;;;;;;;10.60;6.70;;;;;;;2.80;90.27;98967.60;102006;1297;76615;-22
2022/12/25 05:36:58;;;;;;;10.30;6.70;;;;;;;2.85;89.34;98969.23;102017;1298;76045;-22
2022/12/25 05:39:25;;;;;;;8.20;6.00;;;;;;;2.75;89.33;98975.77;102174;1301;74171;-22
2022/12/25 05:41:52;;;;;;;9.70;6.90;;;;;;;2.59;89.80;98976.52;102097;1301;61715;-22
2022/12/25 05:44:19;;;;;;;11.50;6.90;;;;;;;2.22;91.04;98976.27;102125;1301;61539;-22
2022/12/25 05:46:46;;;;;;;12.70;7.80;;;;;;;2.20;92.24;98980.48;102112;1294;75495;-22
2022/12/25 05:49:13;;;;;;;11.20;7.00;;;;;;;2.82;90.51;98983.64;102075;1301;76730;-22
2022/12/25 05:51:40;;;;;;;15.40;10.40;;;;;;;2.69;89.44;98984.25;102127;1301;75224;-23
2022/12/25 05:54:07;;;;;;;19.30;13.70;;;;;;;2.55;89.95;98983.59;101981;1304;61875;-22
2022/12/25 05:56:36;;;;;;;19.60;12.10;;;;;;;2.24;90.91;98985.75;102098;1300;62854;-22
2022/12/25 05:59:03;;;;;;;14.60;9.50;;;;;;;2.01;92.46;98988.56;102026;1304;75362;-22
2022/12/25 06:01:30;;;;;;;19.70;12.00;;;;;;;2.56;91.23;98992.61;102122;1294;74530;-22
2022/12/25 06:03:57;;;;;;;22.90;15.00;;;;;;;2.70;89.72;98998.95;102156;1300;74884;-22
2022/12/25 06:06:24;;;;;;;12.50;8.20;;;;;;;2.55;89.50;99003.46;102177;1301;62693;-22
2022/12/25 06:08:54;;;;;;;22.50;15.60;;;;;;;2.19;91.16;99004.17;102035;1301;61782;-22
2022/12/25 06:11:21;;;;;;;24.70;16.60;;;;;;;2.13;91.69;99006.99;102124;1301;75583;-22
2022/12/25 06:13:50;;;;;;;21.20;13.90;;;;;;;2.74;90.60;99016.60;102209;1294;75879;-22
2022/12/25 06:16:17;;;;;;;22.60;14.10;;;;;;;2.84;88.25;99019.68;102078;1297;74132;-22
2022/12/25 06:18:47;;;;;;;17.90;12.00;;;;;;;2.40;89.19;99020.83;102244;1300;61575;-23
2022/12/25 06:21:14;;;;;;;117.40;67.70;;;;;;;2.37;90.16;99024.39;102083;1302;61565;-22
2022/12/25 06:23:41;;;;;;;164.50;98.10;;;;;;;2.29;90.45;99028.52;102217;1286;75342;-22
2022/12/25 06:26:10;;;;;;;34.10;24.30;;;;;;;2.04;91.58;99029.00;102195;1294;76671;-22
2022/12/25 06:28:37;;;;;;;18.90;12.80;;;;;;;2.49;90.34;99034.23;102004;1303;72601;-22
2022/12/25 06:31:10;;;;;;;25.50;17.90;;;;;;;2.56;89.23;99035.82;102105;1294;63345;-22
2022/12/25 06:33:37;;;;;;;18.90;12.40;;;;;;;2.33;89.97;99039.29;102044;1294;61874;-22
2022/12/25 06:36:09;;;;;;;22.40;13.50;;;;;;;2.29;90.43;99039.84;101986;1300;76387;-22
2022/12/25 06:38:36;;;;;;;18.90;10.00;;;;;;;2.17;90.96;99043.33;101939;1298;76103;-22
2022/12/25 06:41:11;;;;;;;99.30;60.00;;;;;;;2.44;90.24;99045.30;102091;1300;75220;-22
2022/12/25 06:43:38;;;;;;;73.10;46.00;;;;;;;2.77;88.40;99046.11;101994;1303;61839;-22
2022/12/25 06:46:10;;;;;;;50.80;35.50;;;;;;;2.75;88.08;99047.55;102125;1301;62815;-22
2022/12/25 06:48:39;;;;;;;89.60;59.60;;;;;;;2.64;88.25;99054.63;102023;1302;75351;-23
2022/12/25 06:51:06;;;;;;;29.80;22.30;;;;;;;2.18;89.95;99057.13;102057;1297;76761;-22
2022/12/25 06:53:33;;;;;;;72.20;50.80;;;;;;;1.98;91.79;99063.52;102116;1297;75271;-23
2022/12/25 06:56:17;;;;;;;96.90;54.00;;;;;;;2.48;90.68;99061.57;102142;1294;62368;-23
2022/12/25 06:58:48;;;;;;;52.30;29.30;;;;;;;2.55;89.12;99067.21;101943;1304;62859;-23
2022/12/25 07:01:18;;;;;;;267.70;152.80;;;;;;;2.56;88.78;99072.80;101886;1302;75407;-23
2022/12/25 07:03:46;;;;;;;85.80;48.10;;;;;;;2.42;89.41;99076.56;102062;1299;76866;-23
2022/12/25 07:06:14;;;;;;;35.30;21.30;;;;;;;2.39;89.75;99078.91;102085;1303;75226;-24
2022/12/25 07:08:40;;;;;;;58.90;34.80;;;;;;;2.25;90.71;99080.61;102224;1300;62624;-26
2022/12/25 07:11:07;;;;;;;51.80;30.70;;;;;;;2.86;89.27;99085.95;102162;1301;62665;-24
2022/12/25 07:13:34;;;;;;;21.10;16.90;;;;;;;2.78;87.90;99090.28;102005;1295;76620;-25
2022/12/25 07:16:02;;;;;;;209.70;117.50;;;;;;;2.54;88.39;99093.52;102207;1298;75406;-24
2022/12/25 07:18:30;;;;;;;19.20;14.10;;;;;;;2.31;89.60;99099.54;102044;1284;75279;-25
2022/12/25 07:20:58;;;;;;;90.80;60.20;;;;;;;2.13;90.72;99103.42;102233;1301;62640;-24
2022/12/25 07:23:25;;;;;;;83.80;49.70;;;;;;;2.52;90.06;99104.70;102198;1301;61594;-24
2022/12/25 07:25:59;;;;;;;110.20;66.30;;;;;;;3.08;87.68;99106.33;102163;1294;75790;-24
2022/12/25 07:28:26;;;;;;;127.50;73.30;;;;;;;2.98;86.81;99110.77;102014;1295;76183;-24
2022/12/25 07:30:53;;;;;;;26.00;16.50;;;;;;;2.72;87.18;99110.12;102032;1303;74948;-24
2022/12/25 07:33:20;;;;;;;27.40;17.80;;;;;;;2.29;89.02;99112.29;102238;1301;61149;-24
2022/12/25 07:35:47;;;;;;;20.70;13.70;;;;;;;2.24;89.86;99118.34;102189;1301;61665;-24
2022/12/25 07:38:14;;;;;;;34.80;29.50;;;;;;;2.54;89.14;99118.85;102041;1301;76483;-24
2022/12/25 07:40:44;;;;;;;28.20;20.40;;;;;;;2.48;88.12;99123.08;102193;1294;75676;-24
2022/12/25 07:43:12;;;;;;;29.50;24.80;;;;;;;2.62;88.27;99125.98;101983;1303;74887;-24
2022/12/25 07:45:39;;;;;;;27.60;17.10;;;;;;;2.58;87.93;99125.54;102088;1302;61841;-22
2022/12/25 07:48:06;;;;;;;18.70;13.20;;;;;;;2.22;88.59;99127.66;102082;1300;61734;-22
2022/12/25 07:50:41;;;;;;;9.90;7.80;;;;;;;2.16;89.34;99129.52;102263;1301;76349;-23
2022/12/25 07:53:08;;;;;;;12.00;8.50;;;;;;;2.46;88.94;99133.42;102278;1301;75541;-22
2022/12/25 07:55:34;;;;;;;11.50;8.00;;;;;;;2.61;87.50;99130.71;102206;1301;74152;-22
2022/12/25 07:58:01;;;;;;;19.80;16.10;;;;;;;2.67;87.09;99134.21;102161;1301;62945;-22
2022/12/25 08:00:32;;;;;;;22.10;15.00;;;;;;;2.37;88.01;99138.67;102136;1301;61661;-22
2022/12/25 08:03:00;;;;;;;16.90;10.40;;;;;;;2.32;88.64;99140.95;102052;1295;75408;-22
2022/12/25 08:05:27;;;;;;;8.60;6.30;;;;;;;2.18;89.01;99146.19;102166;1302;76097;-22
2022/12/25 08:07:54;;;;;;;61.10;40.90;;;;;;;2.27;89.03;99147.30;101961;1296;74944;-22
2022/12/25 08:10:24;;;;;;;71.30;40.60;;;;;;;2.91;87.40;99148.34;102065;1301;61948;-24
2022/12/25 08:12:54;;;;;;;52.10;30.70;;;;;;;2.85;86.08;99148.78;102075;1300;61535;-24
2022/12/25 08:15:21;;;;;;;34.30;23.30;;;;;;;2.47;87.09;99149.52;102077;1302;75389;-24
2022/12/25 08:17:48;;;;;;;55.30;31.90;;;;;;;2.20;88.69;99150.20;102139;1302;75560;-22
2022/12/25 08:20:15;;;;;;;45.60;30.20;;;;;;;2.26;89.49;99153.86;102224;1299;75304;-22
2022/12/25 08:22:46;;;;;;;55.00;28.40;;;;;;;2.64;88.62;99154.03;105796;1294;62885;-23
2022/12/25 08:25:14;;;;;;;17.20;11.90;;;;;;;2.90;86.63;99158.14;105818;1285;61163;-23
2022/12/25 08:27:41;;;;;;;24.70;16.40;;;;;;;2.85;86.33;99163.33;105811;1287;74806;-24
2022/12/25 08:30:08;;;;;;;11.70;6.90;;;;;;;2.43;86.99;99164.62;105888;1292;75174;-24
2022/12/25 08:32:35;;;;;;;13.50;9.90;;;;;;;2.37;87.99;99167.94;105786;1290;74877;-23
2022/12/25 08:35:02;;;;;;;7.90;4.90;;;;;;;2.13;89.18;99170.08;105801;1294;61508;-23
2022/12/25 08:37:29;;;;;;;11.90;7.10;;;;;;;2.13;88.88;99171.09;105773;1294;61650;-24
2022/12/25 08:40:10;;;;;;;20.50;12.80;;;;;;;2.47;87.53;99173.48;105501;1297;75718;-23
2022/12/25 08:42:37;;;;;;;10.60;6.70;;;;;;;2.47;87.16;99176.42;105334;1297;76040;-23
2022/12/25 08:45:05;;;;;;;9.80;6.30;;;;;;;2.35;87.25;99179.70;105502;1297;74774;-24
2022/12/25 08:47:32;;;;;;;15.70;9.80;;;;;;;2.01;88.92;99185.33;105283;1299;61788;-24
2022/12/25 08:49:59;;;;;;;10.70;6.80;;;;;;;1.91;89.59;99192.58;105385;1299;62354;-23
2022/12/25 08:52:27;;;;;;;25.70;15.30;;;;;;;2.15;88.97;99198.27;105398;1300;74893;-24
2022/12/25 08:54:55;;;;;;;35.60;21.80;;;;;;;2.38;87.51;99197.58;105370;1298;75335;-23
2022/12/25 08:57:22;;;;;;;29.40;16.60;;;;;;;2.26;87.32;99197.09;105479;1297;72853;-23
2022/12/25 08:59:48;;;;;;;28.40;16.80;;;;;;;2.10;87.69;99196.73;105495;1297;62337;-24
2022/12/25 09:02:15;;;;;;;57.20;30.30;;;;;;;1.84;88.63;99198.88;105445;1297;60175;-24
2022/12/25 09:04:45;;;;;;;20.50;12.90;;;;;;;1.85;89.61;99202.09;105273;1300;75672;-24
2022/12/25 09:07:12;;;;;;;29.30;15.80;;;;;;;2.36;88.07;99201.60;105400;1298;76259;-24
2022/12/25 09:09:39;;;;;;;40.60;22.00;;;;;;;2.53;86.30;99200.66;105460;1297;74616;-24
2022/12/25 09:12:06;;;;;;;19.50;9.80;;;;;;;2.43;86.34;99206.77;105651;1288;62492;-24
2022/12/25 09:14:33;;;;;;;7.10;4.70;;;;;;;2.30;86.87;99212.46;105766;1291;61336;-24
2022/12/25 09:17:00;;;;;;;18.30;12.20;;;;;;;1.90;88.28;99219.52;105790;1295;75773;-23
2022/12/25 09:19:27;;;;;;;6.80;4.20;;;;;;;1.73;89.18;99219.72;105685;1292;76156;-24
2022/12/25 09:21:54;;;;;;;9.10;5.60;;;;;;;2.15;88.57;99225.47;105700;1287;74959;-24
2022/12/25 09:24:21;;;;;;;81.30;55.40;;;;;;;2.41;86.73;99224.33;105773;1284;62270;-24
2022/12/25 09:26:48;;;;;;;33.50;19.80;;;;;;;2.22;86.78;99226.35;105774;1295;61473;-24
2022/12/25 09:29:16;;;;;;;39.90;27.40;;;;;;;2.24;86.46;99226.10;105761;1295;75876;-24
2022/12/25 09:31:43;;;;;;;28.20;15.90;;;;;;;1.89;87.21;99235.16;105755;1294;76360;-23
2022/12/25 09:34:10;;;;;;;10.00;5.90;;;;;;;1.77;88.23;99235.48;105740;1295;74001;-23
2022/12/25 09:36:44;;;;;;;34.40;18.60;;;;;;;2.17;87.34;99235.00;105676;1297;61342;-24
2022/12/25 09:39:11;;;;;;;22.40;13.60;;;;;;;2.42;86.10;99239.02;105678;1298;62217;-24
2022/12/25 09:41:53;;;;;;;17.20;10.70;;;;;;;2.48;85.93;99239.08;105752;1295;74816;-24
2022/12/25 09:44:41;;;;;;;13.80;7.80;;;;;;;2.10;86.49;99238.01;105601;1295;76080;-24
2022/12/25 09:47:10;;;;;;;21.90;14.90;;;;;;;2.08;87.52;99240.31;105687;1297;73680;-24
2022/12/25 09:49:41;;;;;;;12.30;10.50;;;;;;;1.95;87.80;99240.70;105563;1296;63692;-24
2022/12/25 09:52:10;;;;;;;27.40;21.20;;;;;;;2.19;87.63;99244.45;105502;1290;61196;-24
2022/12/25 09:54:45;;;;;;;30.40;21.60;;;;;;;2.55;85.79;99246.13;105634;1296;75935;-23
2022/12/25 09:57:12;;;;;;;18.30;13.40;;;;;;;2.56;85.11;99243.73;105733;1284;76322;-23
2022/12/25 09:59:41;;;;;;;12.60;9.40;;;;;;;2.34;85.73;99252.04;105674;1290;74786;-24
2022/12/25 10:02:59;;;;;;;11.20;7.40;;;;;;;1.88;86.89;99251.79;105658;1298;60242;-24
2022/12/25 10:06:18;;;;;;;6.90;5.10;;;;;;;1.76;87.77;99252.81;105482;1298;62563;-24
2022/12/25 10:09:39;;;;;;;9.60;6.60;;;;;;;2.20;86.96;99256.07;104751;1306;75980;-24
2022/12/25 10:12:26;;;;;;;10.30;7.50;;;;;;;2.57;84.83;99258.73;104325;1309;76335;-24
2022/12/25 10:15:11;;;;;;;7.50;6.10;;;;;;;2.38;84.93;99261.80;104111;1305;74861;-24
2022/12/25 10:17:41;;;;;;;14.30;10.50;;;;;;;1.86;86.64;99267.63;104325;1306;60441;-24
2022/12/25 10:20:15;;;;;;;9.70;7.80;;;;;;;1.86;87.75;99267.96;104141;1312;62157;-24
2022/12/25 10:23:18;;;;;;;8.60;6.00;;;;;;;1.97;87.71;99270.08;103338;1312;1221672;-24
2022/12/25 10:25:45;;;;;;;9.70;6.40;;;;;;;2.52;85.94;99266.15;104067;1312;76220;-23
2022/12/25 10:28:22;;;;;;;11.40;8.60;;;;;;;2.71;85.52;99262.06;104075;1312;74517;-24
2022/12/25 10:30:49;;;;;;;8.90;6.30;;;;;;;2.46;84.74;99261.82;103890;1316;62215;-24
2022/12/25 10:33:16;;;;;;;10.70;4.90;;;;;;;2.05;86.63;99263.91;104100;1305;60649;-24
2022/12/25 10:35:43;;;;;;;9.70;5.20;;;;;;;1.88;87.26;99264.45;104127;1313;73672;-23
2022/12/25 10:38:12;;;;;;;11.80;5.20;;;;;;;1.98;87.86;99265.42;104143;1304;76161;-24
2022/12/25 10:41:04;;;;;;;11.20;6.00;;;;;;;2.26;86.74;99264.41;104639;1311;74850;-24
2022/12/25 10:43:54;;;;;;;3.80;3.00;;;;;;;2.21;85.76;99263.59;104907;1305;61075;-24
2022/12/25 10:46:23;;;;;;;7.60;5.00;;;;;;;1.79;87.24;99271.71;105027;1303;62445;-24
2022/12/25 10:48:59;;;;;;;8.30;4.80;;;;;;;2.18;87.48;99279.83;105128;1303;73791;-24
2022/12/25 10:51:37;;;;;;;10.20;5.20;;;;;;;2.16;87.65;99285.70;105107;1303;75347;-24
2022/12/25 10:54:23;;;;;;;4.40;3.20;;;;;;;2.09;88.07;99288.59;105113;1297;74835;-24
2022/12/25 10:57:01;;;;;;;6.10;4.40;;;;;;;2.12;86.46;99290.36;105408;1301;62183;-24
2022/12/25 10:59:32;;;;;;;10.30;4.90;;;;;;;2.35;85.34;99290.58;105441;1303;62121;-24
2022/12/25 11:02:09;;;;;;;10.70;6.50;;;;;;;2.59;84.73;99290.20;105441;1298;76028;-24
2022/12/25 11:04:36;;;;;;;15.00;8.30;;;;;;;2.22;85.35;99291.27;105580;1296;76079;-24
2022/12/25 11:07:13;;;;;;;10.00;5.80;;;;;;;2.36;85.99;99292.41;105496;1299;73142;-24
2022/12/25 11:09:48;;;;;;;19.20;10.30;;;;;;;2.18;86.12;99290.77;105606;1293;60915;-24
2022/12/25 11:12:18;;;;;;;17.70;8.80;;;;;;;1.93;86.67;99290.45;105424;1302;61435;-24
2022/12/25 11:14:57;;;;;;;23.50;8.70;;;;;;;2.63;85.37;99290.91;105473;1299;74393;-24
2022/12/25 11:17:24;;;;;;;16.40;7.90;;;;;;;2.56;83.68;99289.15;105583;1294;75697;-24
2022/12/25 11:19:59;;;;;;;12.70;7.20;;;;;;;2.62;84.18;99290.08;105600;1295;74871;-24
2022/12/25 11:22:28;;;;;;;21.70;12.70;;;;;;;2.44;84.33;99296.17;105587;1303;61550;-24
2022/12/25 11:24:55;;;;;;;15.60;8.10;;;;;;;2.23;85.62;99297.06;105568;1297;62162;-24
2022/12/25 11:27:26;;;;;;;11.30;6.80;;;;;;;1.95;86.79;99298.92;105596;1290;76029;-24
2022/12/25 11:29:58;;;;;;;8.50;5.80;;;;;;;2.07;86.93;99295.36;105634;1296;76478;-24
2022/12/25 11:32:30;;;;;;;6.30;4.70;;;;;;;2.59;85.68;99299.65;105310;1300;75041;-24
2022/12/25 11:34:57;;;;;;;10.70;6.20;;;;;;;2.57;84.60;99304.52;105565;1297;61249;-24
2022/12/25 11:37:32;;;;;;;17.80;8.60;;;;;;;2.40;85.42;99310.75;105570;1293;62401;-24
2022/12/25 11:39:59;;;;;;;18.80;9.60;;;;;;;2.25;86.47;99316.85;105284;1293;76075;-24
2022/12/25 11:42:31;;;;;;;11.90;7.20;;;;;;;2.11;86.90;99320.52;105634;1294;76596;-24
2022/12/25 11:45:02;;;;;;;8.00;4.30;;;;;;;2.12;87.35;99322.19;105531;1298;73574;-24
2022/12/25 11:47:34;;;;;;;7.50;5.10;;;;;;;2.63;85.25;99322.57;105565;1298;62227;-24
2022/12/25 11:50:45;;;;;;;7.00;4.80;;;;;;;2.85;83.53;99321.61;105512;1303;61331;-24
2022/12/25 11:53:26;;;;;;;6.70;5.00;;;;;;;2.70;83.19;99327.79;105269;1300;74625;-24
2022/12/25 11:55:55;;;;;;;7.40;5.80;;;;;;;2.47;84.60;99332.74;105090;1301;76685;-24
2022/12/25 11:58:48;;;;;;;11.40;7.50;;;;;;;2.38;85.45;99335.17;105050;1303;74827;-24
2022/12/25 12:01:18;;;;;;;9.50;4.60;;;;;;;2.15;86.22;99341.59;105213;1303;60472;-24
2022/12/25 12:03:45;;;;;;;3.70;2.70;;;;;;;1.96;86.81;99347.70;105284;1301;62431;-24
2022/12/25 12:07:00;;;;;;;5.50;4.10;;;;;;;2.61;85.43;99348.06;105330;1301;75946;-24
2022/12/25 12:09:45;;;;;;;;;;;;;;;2.56;83.52;99351.88;104661;1307;76362;-24
2022/12/25 12:12:26;;;;;;;3.70;2.50;;;;;;;2.13;84.50;99354.17;104687;1306;74808;-24
2022/12/25 12:15:07;;;;;;;4.60;2.80;;;;;;;1.84;85.92;99358.10;104750;1305;61425;-24
2022/12/25 12:17:34;;;;;;;3.50;2.20;;;;;;;1.46;87.81;99358.90;104697;1299;62440;-24
2022/12/25 12:20:33;;;;;;;2.00;1.70;;;;;;;1.42;88.65;99362.48;104684;1307;75153;-24
2022/12/25 12:23:01;;;;;;;5.40;3.40;;;;;;;1.88;87.07;99368.40;104377;1305;75416;-24
2022/12/25 12:25:28;;;;;;;4.20;2.50;;;;;;;2.20;85.83;99371.55;104950;1301;74732;-24
2022/12/25 12:27:58;;;;;;;9.90;5.00;;;;;;;2.11;85.50;99374.48;104954;1306;61234;-24
2022/12/25 12:30:33;;;;;;;4.80;3.20;;;;;;;1.95;86.19;99383.02;104814;1305;61206;-23
2022/12/25 12:33:01;;;;;;;4.40;2.70;;;;;;;1.95;85.84;99379.27;104643;1309;76222;-24
2022/12/25 12:35:33;;;;;;;3.10;2.20;;;;;;;1.73;86.37;99382.88;104777;1302;76948;-23
2022/12/25 12:38:00;;;;;;;3.80;2.00;;;;;;;1.63;86.75;99384.09;104767;1305;74755;-24
2022/12/25 12:40:34;;;;;;;5.40;2.70;;;;;;;2.08;86.02;99387.47;104941;1302;61725;-24
2022/12/25 12:43:04;;;;;;;4.40;2.60;;;;;;;2.38;84.28;99393.27;105016;1302;60919;-24
2022/12/25 12:45:33;;;;;;;4.20;2.70;;;;;;;2.48;83.50;99396.95;105414;1301;75948;-24
2022/12/25 12:48:01;;;;;;;4.90;2.90;;;;;;;2.07;84.26;99400.85;105328;1301;76339;-24
2022/12/25 12:50:36;;;;;;;5.10;2.90;;;;;;;1.65;86.09;99405.27;105537;1298;73029;-24
2022/12/25 12:53:24;;;;;;;5.30;2.90;;;;;;;1.48;87.22;99409.15;105339;1300;60520;-24
2022/12/25 12:56:15;;;;;;;2.60;2.20;;;;;;;1.44;87.93;99411.85;104764;1305;60972;-23
2022/12/25 12:58:49;;;;;;;3.40;2.50;;;;;;;2.05;86.26;99414.11;104572;1308;74898;-24
2022/12/25 13:01:29;;;;;;;5.60;3.10;;;;;;;2.17;84.62;99415.55;105050;1303;75582;-24
2022/12/25 13:04:17;;;;;;;6.50;3.00;;;;;;;1.98;84.74;99415.58;104692;1305;75136;-24
2022/12/25 13:07:03;;;;;;;6.10;3.90;;;;;;;1.79;85.83;99420.65;104845;1306;61401;-24
2022/12/25 13:09:39;;;;;;;5.70;4.30;;;;;;;1.52;86.75;99417.35;105018;1309;61363;-24
2022/12/25 13:12:07;;;;;;;4.50;3.00;;;;;;;1.14;88.56;99415.88;105004;1309;75712;-24
2022/12/25 13:14:34;;;;;;;7.40;2.90;;;;;;;1.32;88.71;99414.36;104913;1300;76328;-24
2022/12/25 13:17:01;;;;;;;5.50;3.10;;;;;;;1.75;87.17;99416.30;104591;1305;73914;-24
2022/12/25 13:19:28;;;;;;;6.40;4.10;;;;;;;1.96;86.19;99421.48;104752;1307;62678;-24